Time;durP1;ratioP1;P1;durP2;ratioP2;P2;SDS_P1;SDS_P2;PMS_P1;PMS_P2;Temp;Humidity;BMP_temperature;BMP_pressure;BME280_temperature;BME280_humidity;BME280_pressure;Samples;Min_cycle;Max_cycle;Signal;HPM_P1;HPM_P2
2022/04/06 00:02:24;;;;;;;28.98;9.90;;;;;;;7.95;100.00;100325.16;5347174;27;20039;-67
2022/04/06 00:04:55;;;;;;;27.25;10.23;;;;;;;7.98;100.00;100320.47;5345693;27;20031;-67
2022/04/06 00:07:27;;;;;;;25.00;10.02;;;;;;;7.94;100.00;100319.00;5345580;27;20035;-66
2022/04/06 00:09:58;;;;;;;28.25;10.18;;;;;;;7.93;100.00;100311.97;5344493;27;20030;-66
2022/04/06 00:12:29;;;;;;;30.38;10.52;;;;;;;7.95;100.00;100309.22;5349136;27;20604;-66
2022/04/06 00:15:01;;;;;;;26.27;10.60;;;;;;;7.93;100.00;100306.66;5350894;27;20469;-67
2022/04/06 00:17:32;;;;;;;26.45;9.43;;;;;;;7.93;100.00;100305.81;5348536;27;20034;-67
2022/04/06 00:20:05;;;;;;;24.30;10.40;;;;;;;7.96;100.00;100308.25;5346161;27;20046;-67
2022/04/06 00:22:37;;;;;;;28.85;10.27;;;;;;;7.94;100.00;100303.06;5347132;27;20069;-66
2022/04/06 00:25:09;;;;;;;28.80;10.23;;;;;;;7.93;100.00;100301.34;5345239;27;20105;-67
2022/04/06 00:27:40;;;;;;;24.20;9.45;;;;;;;7.92;100.00;100296.16;5345587;27;20030;-66
2022/04/06 00:30:11;;;;;;;26.60;9.85;;;;;;;7.92;100.00;100296.16;5345626;27;20108;-67
2022/04/06 00:32:43;;;;;;;23.27;8.38;;;;;;;7.89;100.00;100294.56;5346377;27;20038;-66
2022/04/06 00:35:29;;;;;;;22.67;9.15;;;;;;;7.89;100.00;100289.25;5348020;27;20070;-67
2022/04/06 00:38:03;;;;;;;24.00;8.50;;;;;;;7.87;100.00;100296.50;5349773;27;20023;-67
2022/04/06 00:40:36;;;;;;;20.92;9.07;;;;;;;7.86;100.00;100294.78;5349509;27;20356;-67
2022/04/06 00:43:10;;;;;;;22.75;8.95;;;;;;;7.84;100.00;100292.28;5352414;27;20114;-67
2022/04/06 00:45:43;;;;;;;24.85;8.50;;;;;;;7.87;100.00;100290.34;5347070;27;20018;-67
2022/04/06 00:48:14;;;;;;;29.60;9.82;;;;;;;7.84;100.00;100283.44;5349770;27;20448;-67
2022/04/06 00:50:46;;;;;;;32.22;10.02;;;;;;;7.86;100.00;100286.81;5348739;27;20045;-67
2022/04/06 00:53:18;;;;;;;25.23;8.52;;;;;;;7.82;100.00;100278.25;5352330;27;20023;-67
2022/04/06 00:55:49;;;;;;;24.35;8.65;;;;;;;7.87;100.00;100282.38;5347758;27;20404;-67
2022/04/06 00:58:20;;;;;;;27.48;8.45;;;;;;;7.85;100.00;100282.50;5349316;27;20038;-67
2022/04/06 01:00:52;;;;;;;27.42;8.68;;;;;;;7.80;100.00;100274.84;5353743;27;20082;-67
2022/04/06 01:03:24;;;;;;;23.02;8.80;;;;;;;7.84;100.00;100280.78;5356094;27;21546;-67
2022/04/06 01:05:55;;;;;;;19.90;7.72;;;;;;;7.84;100.00;100283.44;5355109;27;20022;-67
2022/04/06 01:08:27;;;;;;;20.20;8.05;;;;;;;7.85;100.00;100277.19;5354446;27;20041;-67
2022/04/06 01:10:58;;;;;;;22.02;7.90;;;;;;;7.81;100.00;100270.41;5349479;27;20033;-67
2022/04/06 01:13:30;;;;;;;24.08;8.38;;;;;;;7.83;100.00;100269.31;5353050;27;20506;-67
2022/04/06 01:16:01;;;;;;;22.20;7.53;;;;;;;7.80;100.00;100266.88;5348234;27;20058;-67
2022/04/06 01:18:32;;;;;;;25.13;7.75;;;;;;;7.80;100.00;100268.69;5351976;27;20073;-67
2022/04/06 01:21:04;;;;;;;20.92;7.30;;;;;;;7.80;100.00;100263.38;5350500;27;20096;-67
2022/04/06 01:23:35;;;;;;;24.98;7.55;;;;;;;7.81;100.00;100260.63;5350774;27;20026;-67
2022/04/06 01:26:08;;;;;;;23.08;7.88;;;;;;;7.81;100.00;100265.09;5352022;27;20027;-67
2022/04/06 01:28:40;;;;;;;21.45;7.32;;;;;;;7.83;100.00;100266.66;5352170;27;20471;-67
2022/04/06 01:31:12;;;;;;;21.05;7.05;;;;;;;7.82;100.00;100264.13;5351600;27;20085;-67
2022/04/06 01:33:44;;;;;;;22.92;7.32;;;;;;;7.80;100.00;100253.59;5352170;27;20035;-67
2022/04/06 01:36:15;;;;;;;25.00;6.90;;;;;;;7.75;100.00;100261.06;5351923;27;20492;-67
2022/04/06 01:38:46;;;;;;;19.33;6.95;;;;;;;7.78;100.00;100260.84;5354350;27;20066;-67
2022/04/06 01:41:17;;;;;;;21.98;6.72;;;;;;;7.74;100.00;100258.53;5352272;27;20071;-67
2022/04/06 01:43:49;;;;;;;22.42;7.68;;;;;;;7.71;100.00;100256.97;5351610;27;20126;-67
2022/04/06 01:46:20;;;;;;;20.92;7.25;;;;;;;7.71;100.00;100256.09;5348745;27;20042;-67
2022/04/06 01:54:31;;;;;;;21.58;7.15;;;;;;;7.69;100.00;100253.56;5355587;27;20459;-67
2022/04/06 01:57:02;;;;;;;22.70;6.25;;;;;;;7.71;100.00;100248.13;5354369;27;20035;-66
2022/04/06 01:59:34;;;;;;;17.20;5.60;;;;;;;7.69;100.00;100247.41;5350310;27;20027;-67
2022/04/06 02:02:05;;;;;;;19.08;5.80;;;;;;;7.70;100.00;100246.44;5356061;27;20042;-67
2022/04/06 02:04:38;;;;;;;21.23;6.18;;;;;;;7.66;100.00;100251.97;5354865;27;20050;-67
2022/04/06 02:07:13;;;;;;;22.45;5.53;;;;;;;7.70;100.00;100249.09;5358493;27;20037;-67
2022/04/06 02:09:45;;;;;;;23.02;5.93;;;;;;;7.64;100.00;100240.63;5357773;27;20035;-67
2022/04/06 02:12:16;;;;;;;16.33;5.07;;;;;;;7.64;100.00;100240.63;5359085;27;20373;-67
2022/04/06 02:14:47;;;;;;;18.05;5.25;;;;;;;7.62;100.00;100239.88;5350029;27;20446;-67
2022/04/06 02:17:19;;;;;;;20.58;5.18;;;;;;;7.64;100.00;100235.31;5352303;27;20515;-67
2022/04/06 02:19:50;;;;;;;20.63;5.75;;;;;;;7.59;100.00;100234.81;5356312;27;20031;-67
2022/04/06 02:22:21;;;;;;;18.38;5.63;;;;;;;7.58;100.00;100238.44;5353842;27;20110;-67
2022/04/06 02:24:53;;;;;;;19.85;5.10;;;;;;;7.57;100.00;100238.53;5353428;27;20027;-67
2022/04/06 02:27:24;;;;;;;22.05;5.72;;;;;;;7.54;100.00;100228.16;5352433;27;20039;-67
2022/04/06 02:29:55;;;;;;;17.98;5.68;;;;;;;7.58;100.00;100234.94;5355919;27;20812;-67
2022/04/06 02:32:26;;;;;;;23.17;5.82;;;;;;;7.54;100.00;100236.13;5350812;27;20061;-67
2022/04/06 02:34:58;;;;;;;25.00;6.63;;;;;;;7.50;100.00;100219.56;5346319;27;20041;-67
2022/04/06 02:37:29;;;;;;;20.52;5.68;;;;;;;7.50;100.00;100226.66;5350445;27;20099;-67
2022/04/06 02:40:00;;;;;;;19.33;5.32;;;;;;;7.49;100.00;100225.00;5353221;27;20022;-67
2022/04/06 02:42:32;;;;;;;15.07;4.88;;;;;;;7.45;100.00;100227.00;5346771;27;20472;-67
2022/04/06 02:45:03;;;;;;;21.38;5.32;;;;;;;7.41;100.00;100217.59;5350349;27;20425;-67
2022/04/06 02:47:36;;;;;;;15.65;5.03;;;;;;;7.39;100.00;100217.69;5354681;27;20075;-67
2022/04/06 02:50:07;;;;;;;20.58;4.90;;;;;;;7.38;100.00;100217.81;5350755;27;20073;-67
2022/04/06 02:52:39;;;;;;;21.08;5.43;;;;;;;7.34;100.00;100211.88;5353386;27;20109;-66
2022/04/06 02:55:12;;;;;;;15.18;4.60;;;;;;;7.33;100.00;100218.16;5353838;27;20631;-67
2022/04/06 02:57:44;;;;;;;22.10;4.68;;;;;;;7.31;100.00;100213.94;5351847;27;20037;-67
2022/04/06 03:00:16;;;;;;;13.52;4.90;;;;;;;7.31;100.00;100213.94;5353706;27;20031;-67
2022/04/06 03:02:47;;;;;;;13.18;4.68;;;;;;;7.27;100.00;100202.69;5349789;27;20050;-67
2022/04/06 03:05:18;;;;;;;19.67;5.30;;;;;;;7.26;100.00;100199.16;5355881;27;20027;-67
2022/04/06 03:07:49;;;;;;;16.20;4.85;;;;;;;7.25;100.00;100199.28;5353199;27;20026;-66
2022/04/06 03:10:21;;;;;;;20.58;5.30;;;;;;;7.23;100.00;100196.75;5349639;27;20035;-67
2022/04/06 03:12:53;;;;;;;19.40;4.60;;;;;;;7.27;100.00;100197.38;5346441;27;20050;-67
2022/04/06 03:15:24;;;;;;;14.07;4.47;;;;;;;7.21;100.00;100197.81;5346843;27;20457;-67
2022/04/06 03:17:55;;;;;;;14.80;4.60;;;;;;;7.20;100.00;100180.19;5346253;27;22224;-67
2022/04/06 03:20:27;;;;;;;15.85;4.32;;;;;;;7.21;100.00;100190.72;5353066;27;20597;-67
2022/04/06 03:22:58;;;;;;;13.55;4.00;;;;;;;7.25;100.00;100183.38;5353789;27;20019;-67
2022/04/06 03:25:29;;;;;;;14.75;4.43;;;;;;;7.21;100.00;100184.53;5352660;27;20018;-67
2022/04/06 03:28:01;;;;;;;18.02;4.07;;;;;;;7.20;100.00;100178.38;5357367;27;20023;-67
2022/04/06 03:30:32;;;;;;;15.85;4.57;;;;;;;7.23;100.00;100174.69;5355161;27;20495;-67
2022/04/06 03:33:03;;;;;;;11.57;3.92;;;;;;;7.20;100.00;100175.72;5358365;27;20075;-67
2022/04/06 03:35:36;;;;;;;15.73;4.72;;;;;;;7.23;100.00;100166.72;5357752;27;20491;-67
2022/04/06 03:38:07;;;;;;;13.52;3.50;;;;;;;7.20;100.00;100167.78;5351918;27;20027;-67
2022/04/06 03:40:39;;;;;;;11.13;3.53;;;;;;;7.22;100.00;100165.84;5355791;27;20051;-67
2022/04/06 03:43:10;;;;;;;17.02;4.00;;;;;;;7.17;100.00;100157.41;5339118;27;20482;-67
2022/04/06 03:45:41;;;;;;;14.25;3.80;;;;;;;7.22;100.00;100157.06;5354709;27;20388;-66
2022/04/06 03:48:12;;;;;;;12.38;4.13;;;;;;;7.23;100.00;100149.00;5359149;27;20030;-67
2022/04/06 03:50:44;;;;;;;14.43;3.47;;;;;;;7.22;100.00;100159.72;5360575;27;20259;-67
2022/04/06 03:53:15;;;;;;;14.05;3.67;;;;;;;7.19;100.00;100159.91;5361185;27;20380;-67
2022/04/06 03:55:47;;;;;;;13.90;3.83;;;;;;;7.19;100.00;100151.97;5351346;27;20541;-66
2022/04/06 03:58:18;;;;;;;17.23;3.58;;;;;;;7.19;100.00;100155.50;5358847;27;20419;-66
2022/04/06 04:00:49;;;;;;;11.10;3.65;;;;;;;7.20;100.00;100146.56;5355126;27;20031;-66
2022/04/06 04:03:21;;;;;;;10.88;3.13;;;;;;;7.20;100.00;100154.50;5357917;27;20030;-67
2022/04/06 04:05:52;;;;;;;11.63;3.63;;;;;;;7.22;100.00;100146.44;5357006;27;20023;-67
2022/04/06 04:08:23;;;;;;;13.68;3.70;;;;;;;7.19;100.00;100155.50;5352107;27;20031;-66
2022/04/06 04:10:55;;;;;;;9.00;3.00;;;;;;;7.21;100.00;100160.66;5348105;27;20066;-66
2022/04/06 04:13:26;;;;;;;12.20;3.50;;;;;;;7.25;100.00;100156.84;5355085;27;20415;-67
2022/04/06 04:15:58;;;;;;;12.30;3.60;;;;;;;7.22;100.00;100149.94;5357940;27;20097;-66
2022/04/06 04:18:29;;;;;;;12.70;3.20;;;;;;;7.21;100.00;100156.22;5358655;27;20049;-66
2022/04/06 04:23:50;;;;;;;14.43;3.38;;;;;;;7.26;100.00;100151.41;5356874;27;20031;-66
2022/04/06 04:26:21;;;;;;;14.27;3.80;;;;;;;7.26;100.00;100143.44;5357458;27;20030;-66
2022/04/06 04:28:53;;;;;;;20.20;4.55;;;;;;;7.25;100.00;100147.06;5360273;27;20106;-66
2022/04/06 04:31:24;;;;;;;19.40;4.10;;;;;;;7.29;100.00;100150.34;5358317;27;20026;-66
2022/04/06 04:33:58;;;;;;;13.75;4.65;;;;;;;7.31;100.00;100144.94;5357365;27;20034;-66
2022/04/06 04:36:29;;;;;;;15.68;4.60;;;;;;;7.30;100.00;100146.72;5354261;27;20066;-66
2022/04/06 04:39:01;;;;;;;21.88;5.93;;;;;;;7.35;100.00;100133.13;5360334;27;20054;-66
2022/04/06 04:41:33;;;;;;;18.38;5.00;;;;;;;7.34;100.00;100137.56;5352783;27;20426;-66
2022/04/06 04:44:04;;;;;;;18.88;5.68;;;;;;;7.35;100.00;100146.41;5361585;27;20033;-66
2022/04/06 04:46:36;;;;;;;19.15;5.90;;;;;;;7.35;100.00;100133.97;5361065;27;20026;-66
2022/04/06 04:49:07;;;;;;;23.20;6.72;;;;;;;7.37;100.00;100136.50;5363833;27;20121;-67
2022/04/06 04:51:39;;;;;;;24.27;6.65;;;;;;;7.37;100.00;100124.06;5351356;27;20035;-66
2022/04/06 04:54:10;;;;;;;20.27;6.60;;;;;;;7.38;100.00;100125.78;5351240;27;20062;-66
2022/04/06 04:56:42;;;;;;;20.00;7.18;;;;;;;7.37;100.00;100124.06;5358334;27;20080;-66
2022/04/06 04:59:14;;;;;;;21.67;6.70;;;;;;;7.38;100.00;100124.91;5353300;27;20460;-66
2022/04/06 05:01:45;;;;;;;16.20;7.05;;;;;;;7.44;100.00;100121.78;5361533;27;20050;-67
2022/04/06 05:04:16;;;;;;;18.55;6.63;;;;;;;7.40;100.00;100126.50;5354659;27;20079;-67
2022/04/06 05:06:47;;;;;;;19.20;7.53;;;;;;;7.42;100.00;100115.75;5350537;27;20130;-67
2022/04/06 05:09:19;;;;;;;21.02;6.30;;;;;;;7.46;100.00;100119.91;5357733;27;20037;-66
2022/04/06 05:11:50;;;;;;;17.58;6.60;;;;;;;7.42;100.00;100119.28;5358188;27;20548;-66
2022/04/06 05:14:21;;;;;;;19.40;6.82;;;;;;;7.43;100.00;100114.81;5357396;27;20182;-66
2022/04/06 05:16:53;;;;;;;18.75;7.00;;;;;;;7.49;100.00;100114.34;5349793;27;20103;-66
2022/04/06 05:19:24;;;;;;;19.77;6.65;;;;;;;7.47;100.00;100119.75;5361974;27;20122;-66
2022/04/06 05:21:55;;;;;;;16.58;6.00;;;;;;;7.45;100.00;100105.75;5359510;27;20077;-66
2022/04/06 05:24:27;;;;;;;16.67;5.88;;;;;;;7.47;100.00;100109.16;5355480;27;20400;-66
2022/04/06 05:27:00;;;;;;;18.95;6.43;;;;;;;7.49;100.00;100110.84;5351891;27;20395;-66
2022/04/06 05:29:31;;;;;;;17.80;5.63;;;;;;;7.48;100.00;100107.34;5359172;27;20053;-66
2022/04/06 05:32:03;;;;;;;21.05;6.15;;;;;;;7.48;100.00;100107.34;5358515;27;20026;-66
2022/04/06 05:34:35;;;;;;;12.57;5.40;;;;;;;7.51;100.00;100103.63;5360423;27;20026;-66
2022/04/06 05:37:06;;;;;;;17.55;5.63;;;;;;;7.51;100.00;100108.94;5356900;27;20028;-66
2022/04/06 05:39:37;;;;;;;14.10;4.90;;;;;;;7.51;100.00;100112.41;5352961;27;20030;-66
2022/04/06 05:42:09;;;;;;;14.05;4.90;;;;;;;7.53;100.00;100104.34;5358085;27;20029;-66
2022/04/06 05:44:40;;;;;;;14.13;4.68;;;;;;;7.55;100.00;100105.06;5350832;27;20711;-66
2022/04/06 05:47:13;;;;;;;15.48;4.40;;;;;;;7.55;100.00;100105.06;5347288;27;20428;-66
2022/04/06 05:49:44;;;;;;;15.32;4.55;;;;;;;7.56;100.00;100106.78;5349326;27;20031;-66
2022/04/06 05:52:16;;;;;;;18.05;4.10;;;;;;;7.57;100.00;100101.31;5349412;27;20030;-66
2022/04/06 05:54:47;;;;;;;17.73;4.40;;;;;;;7.59;100.00;100095.91;5356808;27;20058;-66
2022/04/06 05:57:20;;;;;;;13.82;3.63;;;;;;;7.58;100.00;100099.53;5349148;27;20472;-66
2022/04/06 05:59:51;;;;;;;13.55;4.18;;;;;;;7.62;100.00;100101.00;5353015;27;20033;-66
2022/04/06 06:02:25;;;;;;;13.60;3.92;;;;;;;7.66;100.00;100103.28;5355351;27;20027;-66
2022/04/06 06:04:56;;;;;;;11.07;4.32;;;;;;;7.62;100.00;100101.84;5359377;27;20033;-66
2022/04/06 06:07:27;;;;;;;15.73;4.03;;;;;;;7.66;100.00;100113.91;5355837;27;20354;-66
2022/04/06 06:09:58;;;;;;;12.15;3.10;;;;;;;7.66;100.00;100092.66;5349084;27;20467;-66
2022/04/06 06:12:31;;;;;;;12.27;2.92;;;;;;;7.68;100.00;100105.00;5347680;27;20476;-66
2022/04/06 06:15:09;;;;;;;10.10;2.55;;;;;;;7.70;100.00;100111.03;5353966;27;20508;-66
2022/04/06 06:17:41;;;;;;;8.00;2.50;;;;;;;7.74;100.00;100110.66;5356731;27;20083;-67
2022/04/06 06:20:12;;;;;;;12.98;2.30;;;;;;;7.77;100.00;100118.41;5357412;27;20432;-67
2022/04/06 06:22:43;;;;;;;6.78;2.15;;;;;;;7.78;100.00;100117.44;5358667;27;20117;-67
2022/04/06 06:25:15;;;;;;;10.55;2.83;;;;;;;7.80;100.00;100122.63;5333626;27;20022;-67
2022/04/06 06:27:46;;;;;;;9.73;2.53;;;;;;;7.78;100.00;100114.78;5354074;27;20544;-67
2022/04/06 06:30:17;;;;;;;7.05;1.60;;;;;;;7.80;100.00;100118.16;5350034;27;20387;-67
2022/04/06 06:32:49;;;;;;;7.05;1.77;;;;;;;7.85;100.00;100108.03;5354636;27;20035;-66
2022/04/06 06:35:21;;;;;;;4.22;1.38;;;;;;;7.89;100.00;100108.66;5351717;27;20066;-67
2022/04/06 06:37:55;;;;;;;8.00;1.85;;;;;;;7.93;98.46;100106.59;5354882;27;20031;-66
2022/04/06 06:40:27;;;;;;;;;;;;;;;7.85;100.00;100105.38;5358507;27;20114;-67
2022/04/06 06:42:58;;;;;;;8.20;1.73;;;;;;;7.91;100.00;100103.22;5355888;27;20434;-67
2022/04/06 06:45:29;;;;;;;7.35;1.55;;;;;;;7.91;100.00;100100.56;5346094;27;20023;-67
2022/04/06 06:48:01;;;;;;;6.53;1.20;;;;;;;7.95;100.00;100092.22;5358390;27;20031;-67
2022/04/06 06:50:32;;;;;;;8.57;1.77;;;;;;;8.00;100.00;100084.75;5345720;27;20034;-67
2022/04/06 06:53:03;;;;;;;9.25;1.83;;;;;;;8.03;97.89;100083.66;5352740;27;20027;-67
2022/04/06 06:55:35;;;;;;;6.88;1.83;;;;;;;8.04;99.87;100091.53;5356932;27;20102;-67
2022/04/06 06:58:06;;;;;;;10.18;1.48;;;;;;;8.07;98.26;100082.47;5358777;27;20027;-67
2022/04/06 07:00:37;;;;;;;6.95;1.48;;;;;;;8.13;99.69;100089.09;5356217;27;20049;-67
2022/04/06 07:03:09;;;;;;;7.47;1.52;;;;;;;8.14;97.45;100089.00;5360216;27;20066;-67
2022/04/06 07:05:40;;;;;;;8.48;1.70;;;;;;;8.13;100.00;100089.97;5356112;27;20220;-67
2022/04/06 07:08:11;;;;;;;6.53;1.40;;;;;;;8.18;97.32;100081.63;5350499;27;20023;-67
2022/04/06 07:10:46;;;;;;;5.68;1.38;;;;;;;8.16;100.00;100091.53;5358205;27;20034;-67
2022/04/06 07:13:17;;;;;;;7.30;1.70;;;;;;;8.16;100.00;100088.88;5353552;27;20047;-66
2022/04/06 07:15:49;;;;;;;9.05;1.83;;;;;;;8.18;100.00;100092.25;5355085;27;20037;-66
2022/04/06 07:18:21;;;;;;;10.35;3.00;;;;;;;8.18;100.00;100081.63;5362238;27;20038;-67
2022/04/06 07:20:53;;;;;;;9.85;2.83;;;;;;;8.16;100.00;100086.22;5359223;27;20062;-66
2022/04/06 07:23:24;;;;;;;7.68;2.40;;;;;;;8.16;100.00;100083.56;5358052;27;20050;-67
2022/04/06 07:25:55;;;;;;;11.40;3.38;;;;;;;8.20;100.00;100082.34;5356866;27;20373;-66
2022/04/06 07:28:27;;;;;;;7.60;2.60;;;;;;;8.23;100.00;100074.97;5356038;27;20495;-67
2022/04/06 07:30:59;;;;;;;13.50;3.08;;;;;;;8.25;100.00;100074.88;5360156;27;20031;-67
2022/04/06 07:33:30;;;;;;;11.60;3.30;;;;;;;8.28;100.00;100073.78;5354439;27;20031;-66
2022/04/06 07:36:03;;;;;;;10.05;3.60;;;;;;;8.31;100.00;100074.38;5360483;27;20034;-66
2022/04/06 07:38:35;;;;;;;9.75;3.10;;;;;;;8.31;100.00;100061.09;5342507;27;20448;-67
2022/04/06 07:41:06;;;;;;;8.63;3.15;;;;;;;8.31;100.00;100065.56;5362797;27;20095;-66
2022/04/06 07:43:37;;;;;;;9.93;3.65;;;;;;;8.31;100.00;100063.75;5357610;27;20038;-66
2022/04/06 07:46:09;;;;;;;14.45;3.60;;;;;;;8.38;100.00;100054.31;5348807;27;20540;-66
2022/04/06 07:48:41;;;;;;;17.92;4.57;;;;;;;8.41;100.00;100047.91;5365096;27;20023;-67
2022/04/06 07:51:12;;;;;;;10.48;3.50;;;;;;;8.53;100.00;100044.28;5361675;27;20101;-66
2022/04/06 07:53:44;;;;;;;10.43;3.40;;;;;;;8.61;100.00;100041.00;5352280;27;20512;-66
2022/04/06 07:56:15;;;;;;;12.98;3.90;;;;;;;8.72;100.00;100040.13;5361339;27;20061;-67
2022/04/06 07:58:46;;;;;;;9.70;3.15;;;;;;;8.91;100.00;100039.47;5361647;27;20117;-67
2022/04/06 08:01:17;;;;;;;12.98;3.20;;;;;;;9.08;100.00;100032.75;5359882;27;20062;-67
2022/04/06 08:03:49;;;;;;;10.32;3.50;;;;;;;9.14;100.00;100038.38;5340236;27;20387;-66
2022/04/06 08:06:22;;;;;;;8.63;3.22;;;;;;;9.17;100.00;100032.81;5363818;27;20400;-66
2022/04/06 08:08:53;;;;;;;10.20;3.05;;;;;;;9.14;100.00;100033.06;5365358;27;20030;-66
2022/04/06 08:11:25;;;;;;;11.68;3.10;;;;;;;9.13;99.62;100039.38;5365790;27;20048;-67
2022/04/06 08:13:56;;;;;;;13.63;3.15;;;;;;;9.10;100.00;100033.47;5362470;27;20068;-66
2022/04/06 08:16:28;;;;;;;9.63;3.28;;;;;;;9.10;100.00;100036.13;5353789;27;20141;-66
2022/04/06 08:18:59;;;;;;;8.60;2.80;;;;;;;9.03;100.00;100041.97;5355413;27;20385;-66
2022/04/06 08:21:31;;;;;;;12.65;3.20;;;;;;;9.02;100.00;100037.59;5366013;27;20049;-66
2022/04/06 08:24:02;;;;;;;14.63;3.28;;;;;;;9.02;100.00;100042.91;5365031;27;20496;-66
2022/04/06 08:26:34;;;;;;;11.48;2.90;;;;;;;9.00;100.00;100036.88;5364461;27;20503;-66
2022/04/06 08:29:05;;;;;;;15.82;3.08;;;;;;;8.99;100.00;100039.66;5360013;27;20042;-66
2022/04/06 08:31:37;;;;;;;12.45;3.22;;;;;;;8.97;100.00;100039.78;5357851;27;20095;-66
2022/04/06 08:34:08;;;;;;;10.20;2.72;;;;;;;8.93;100.00;100037.53;5354780;27;20486;-66
2022/04/06 08:36:40;;;;;;;10.85;2.85;;;;;;;8.93;100.00;100042.84;5363224;27;20380;-66
2022/04/06 08:39:11;;;;;;;11.25;2.78;;;;;;;8.89;100.00;100046.72;5358423;27;20027;-66
2022/04/06 08:41:43;;;;;;;10.80;3.03;;;;;;;8.93;100.00;100032.19;5351914;27;20402;-66
2022/04/06 08:44:16;;;;;;;9.57;3.13;;;;;;;8.95;100.00;100039.06;5349721;27;20067;-66
2022/04/06 08:46:50;;;;;;;10.93;3.10;;;;;;;8.97;100.00;100041.63;5335880;27;20030;-66
2022/04/06 08:49:23;;;;;;;10.50;2.72;;;;;;;9.03;100.00;100038.44;5356810;27;20042;-66
2022/04/06 08:51:55;;;;;;;10.30;2.90;;;;;;;9.12;100.00;100029.69;5356100;27;20500;-66
2022/04/06 08:54:27;;;;;;;11.68;2.65;;;;;;;9.25;100.00;100031.34;5354036;27;20033;-66
2022/04/06 08:56:58;;;;;;;12.50;3.35;;;;;;;9.34;100.00;100026.09;5362898;27;20030;-66
2022/04/06 08:59:29;;;;;;;8.70;3.30;;;;;;;9.39;100.00;100025.69;5352665;27;20054;-66
2022/04/06 09:02:00;;;;;;;9.05;3.35;;;;;;;9.39;100.00;100026.53;5349552;27;20031;-66
2022/04/06 09:04:35;;;;;;;10.65;2.58;;;;;;;9.42;100.00;100028.09;5361133;27;20019;-66
2022/04/06 09:07:08;;;;;;;8.95;3.03;;;;;;;9.37;100.00;100032.97;5357573;27;20129;-66
2022/04/06 09:09:39;;;;;;;10.20;3.30;;;;;;;9.37;100.00;100032.97;5356464;27;20049;-67
2022/04/06 09:12:15;;;;;;;11.13;2.85;;;;;;;9.38;100.00;100024.84;5358646;27;20804;-66
2022/04/06 09:14:47;;;;;;;9.45;3.35;;;;;;;9.51;100.00;100034.44;5356530;27;20125;-66
2022/04/06 09:17:22;;;;;;;10.07;3.35;;;;;;;9.47;100.00;100035.69;5351935;27;20027;-66
2022/04/06 09:19:57;;;;;;;10.60;3.33;;;;;;;9.51;99.26;100029.13;5339191;27;20042;-66
2022/04/06 09:22:29;;;;;;;10.88;3.70;;;;;;;9.47;100.00;100033.03;5359371;27;20027;-66
2022/04/06 09:25:00;;;;;;;8.07;3.00;;;;;;;9.40;100.00;100025.56;5364415;27;20481;-66
2022/04/06 09:27:33;;;;;;;7.50;3.50;;;;;;;9.47;100.00;100031.19;5358015;27;20107;-66
2022/04/06 09:30:05;;;;;;;11.50;3.25;;;;;;;9.48;100.00;100030.22;5359267;27;20035;-66
2022/04/06 09:32:39;;;;;;;9.15;2.90;;;;;;;9.53;100.00;100038.69;5356087;27;20042;-66
2022/04/06 09:35:26;;;;;;;8.90;3.00;;;;;;;9.55;100.00;100025.22;5364109;27;20034;-66
2022/04/06 09:38:31;;;;;;;9.85;3.28;;;;;;;9.68;100.00;100017.03;5354937;27;20472;-66
2022/04/06 09:41:04;;;;;;;9.77;2.80;;;;;;;9.68;100.00;100017.03;5336396;27;20043;-66
2022/04/06 09:43:35;;;;;;;8.95;3.10;;;;;;;9.71;100.00;100033.59;5357331;27;20042;-66
2022/04/06 09:49:19;;;;;;;10.02;3.08;;;;;;;9.65;100.00;100017.31;5361403;27;20711;-66
2022/04/06 09:51:51;;;;;;;11.93;3.10;;;;;;;9.59;99.54;100021.34;5363468;27;20031;-66
2022/04/06 09:54:26;;;;;;;7.70;3.03;;;;;;;9.60;100.00;100026.50;5356659;27;20717;-66
2022/04/06 09:56:58;;;;;;;9.93;3.28;;;;;;;9.72;100.00;100010.44;5349612;27;20034;-66
2022/04/06 09:59:32;;;;;;;9.70;3.00;;;;;;;9.74;100.00;100020.03;5354602;27;20039;-66
2022/04/06 10:02:09;;;;;;;9.00;3.13;;;;;;;9.81;100.00;100015.81;5352345;27;21766;-66
2022/04/06 10:04:43;;;;;;;9.95;3.03;;;;;;;9.79;100.00;100012.44;5360929;27;20072;-66
2022/04/06 10:07:14;;;;;;;;;;;;;;;9.86;100.00;100017.28;5354798;27;20033;-66
2022/04/06 10:09:47;;;;;;;7.82;2.95;;;;;;;9.76;100.00;100011.88;5364432;27;19910;-67
2022/04/06 10:12:18;;;;;;;8.05;3.13;;;;;;;9.69;100.00;100006.25;5357919;27;20036;-67
2022/04/06 10:14:50;;;;;;;9.52;3.38;;;;;;;9.79;100.00;100001.78;5353573;27;20477;-66
2022/04/06 10:17:22;;;;;;;9.43;3.45;;;;;;;9.94;100.00;99994.28;5353802;27;20118;-66
2022/04/06 10:20:07;;;;;;;11.18;3.10;;;;;;;9.88;100.00;99996.66;5358747;27;20050;-67
2022/04/06 10:23:14;;;;;;;10.25;3.00;;;;;;;9.85;100.00;100007.56;5349651;27;20373;-67
2022/04/06 10:25:54;;;;;;;8.35;3.30;;;;;;;9.65;100.00;99996.00;5331756;27;20161;-67
2022/04/06 10:28:26;;;;;;;15.10;3.58;;;;;;;9.62;100.00;100005.06;5351111;27;20033;-67
2022/04/06 10:31:15;;;;;;;10.82;3.45;;;;;;;9.54;100.00;100007.56;5354539;27;20027;-66
2022/04/06 10:33:46;;;;;;;9.38;3.30;;;;;;;9.45;100.00;99998.53;5362308;27;20027;-66
2022/04/06 10:36:23;;;;;;;9.40;3.08;;;;;;;9.49;100.00;100001.78;5351107;27;20023;-66
2022/04/06 10:39:04;;;;;;;9.52;3.63;;;;;;;9.49;100.00;99999.13;5356227;27;20038;-66
2022/04/06 10:41:39;;;;;;;9.95;3.45;;;;;;;9.46;100.00;99992.25;5360125;27;20361;-66
2022/04/06 10:44:36;;;;;;;8.60;3.25;;;;;;;9.48;100.00;99979.66;5344224;27;20072;-66
2022/04/06 10:47:10;;;;;;;10.02;3.33;;;;;;;9.42;100.00;99993.50;5356112;27;20023;-66
2022/04/06 10:49:41;;;;;;;7.30;3.08;;;;;;;9.45;100.00;99981.72;5360009;27;20423;-66
2022/04/06 10:52:23;;;;;;;12.65;3.53;;;;;;;9.37;100.00;99990.38;5357027;27;20026;-67
2022/04/06 10:54:54;;;;;;;6.20;2.80;;;;;;;9.44;100.00;99977.38;5352853;27;20031;-66
2022/04/06 10:58:00;;;;;;;9.45;3.17;;;;;;;9.54;100.00;99973.78;5357338;27;20437;-66
2022/04/06 11:00:32;;;;;;;10.35;3.15;;;;;;;9.60;100.00;99980.41;5350376;27;20438;-67
2022/04/06 11:03:18;;;;;;;8.52;2.78;;;;;;;9.69;100.00;99976.94;5363093;27;20053;-66
2022/04/06 11:05:50;;;;;;;8.35;2.90;;;;;;;9.65;100.00;99972.88;5356231;27;20026;-66
2022/04/06 11:11:40;;;;;;;6.93;3.10;;;;;;;9.80;100.00;99974.19;5346576;27;20023;-67
2022/04/06 11:14:23;;;;;;;7.18;3.10;;;;;;;9.85;100.00;99964.94;5354222;27;20051;-67
2022/04/06 11:16:55;;;;;;;6.55;3.10;;;;;;;9.89;100.00;99961.88;5353691;27;20031;-66
2022/04/06 11:19:26;;;;;;;8.13;3.05;;;;;;;9.96;100.00;99962.19;5361481;27;20029;-66
2022/04/06 11:21:58;;;;;;;7.13;2.92;;;;;;;9.98;100.00;99949.56;5360857;27;20110;-66
2022/04/06 11:24:31;;;;;;;5.68;2.63;;;;;;;10.00;100.00;99950.28;5335834;27;20083;-66
2022/04/06 11:27:02;;;;;;;7.13;3.22;;;;;;;10.02;100.00;99951.81;5359234;27;20398;-66
2022/04/06 11:29:36;;;;;;;6.35;2.83;;;;;;;10.04;100.00;99946.34;5361920;27;20075;-66
2022/04/06 11:32:07;;;;;;;6.63;2.30;;;;;;;10.05;99.42;99947.19;5360576;27;20022;-66
2022/04/06 11:34:40;;;;;;;8.55;2.70;;;;;;;10.04;99.20;99941.03;5356746;27;20049;-66
2022/04/06 11:37:11;;;;;;;5.47;2.50;;;;;;;10.02;99.53;99943.81;5353193;27;20101;-66
2022/04/06 11:39:43;;;;;;;7.97;3.47;;;;;;;10.01;99.92;99942.16;5353261;27;20445;-66
2022/04/06 11:42:17;;;;;;;9.18;3.00;;;;;;;10.00;100.00;99937.78;5358839;27;20035;-66
2022/04/06 11:44:48;;;;;;;;;;;;;;;10.06;100.00;99941.72;5347463;27;20026;-66
2022/04/06 11:47:33;;;;;;;7.22;2.58;;;;;;;10.01;99.47;99941.31;5355880;27;19926;-66
2022/04/06 11:50:10;;;;;;;6.25;2.92;;;;;;;9.95;98.71;99934.72;5358932;27;20022;-66
2022/04/06 11:52:42;;;;;;;6.28;2.70;;;;;;;9.97;98.88;99927.41;5356251;27;20353;-66
2022/04/06 11:55:13;;;;;;;7.28;3.35;;;;;;;9.99;97.83;99930.78;5352200;27;20088;-66
2022/04/06 11:57:45;;;;;;;8.63;3.17;;;;;;;9.96;95.22;99928.38;5358784;27;20030;-66
2022/04/06 12:00:17;;;;;;;6.47;2.78;;;;;;;10.05;96.22;99923.22;5357913;27;20067;-66
2022/04/06 12:02:55;;;;;;;7.13;3.17;;;;;;;10.11;99.32;99920.00;5358325;27;20515;-66